Aeroporto :
LOGIN :

Iscrizione | Disclaimer

   EN    FR    IT 

 










Sommario :    VFR   VFR Marginale   IFR   IFR Intensivo   IFR Molto Intensivo
Visibilità : 
Base nubi : 
>= 8 km
>= 3000ft
5 / 8 km
1000 / 3000 ft
1500m / 5 km
500 / 1000 ft
800 / 1500m
200 / 500 ft
< 800m
< 200 ft
Simboli :   Temporali  Nebbia  Neve Forte  Precipitazioni Forti  Vento > 20 kt
SIGMETs :   Varie  Temporali  Ghiacco  Turbolenza  Onda orograficha  Ceneri Vulcaniche







- Altitudine del aeroporto : 20 ft
- Codice IATA : DLM


LTBS - Dalaman

ULTIMO METAR :
  • 250050Z 01013KT CAVOK 11/M07 Q1009 NOSIG RMK RWY19 35017KT

METARs OBSOLETI :
  • 250020Z 04015KT CAVOK 11/M07 Q1009 NOSIG RMK RWY19 02014KT 360V070
  • 242350Z 03016KT CAVOK 12/M07 Q1009 NOSIG RMK RWY19 02015G27KT 350V070
  • 242320Z 05018KT CAVOK 12/M06 Q1010 NOSIG RMK RWY19 01020KT
  • 242250Z 04017G30KT CAVOK 12/M06 Q1010 NOSIG RMK RWY19 01018KT
  • 242220Z 03024KT CAVOK 12/M06 Q1009 NOSIG RMK RWY19 01023KT

TAF TAF LTBS
Valido dal 25 a 00 ore il 26 a 00 ore UTC


242240Z 2500/2524 02015KT CAVOK
BECMG 2509/2511 23012KT
BECMG 2515/2517 VRB02KT
Nessun NOTAM noto per questo aeroporto.



MetMap, La meteo Aeronautica in un colpo d'occhio ! - Copyright ORBIFLY Dicembre 2007 - Disclaimer

ORBIFLY MET'MAP TEAM :

Programmazione e sviluppo : Alexandra Zaïnal
Concezione e sviluppo : Baudouin d'Aumeries
Co-Programmazione e sviluppo : Marc-Olivier Méhu
Supporto tecnico e logistico : Manuel Goepfert
Aiuto per la traduzione : Arnaldo La Scala

Contatto : metmap@orbifly.com




FONTI E CREDITI :

   NOAA